createdAt,value
2018-11-27T00:03:56.133Z,17.12
2018-11-27T00:07:59.892Z,16.25
2018-11-27T00:12:03.657Z,15.00
2018-11-27T00:16:07.344Z,14.20
2018-11-27T00:20:12.274Z,14.60
2018-11-27T00:24:15.961Z,14.47
2018-11-27T00:28:19.634Z,14.30
2018-11-27T00:32:23.360Z,13.05
2018-11-27T00:36:27.126Z,12.20
2018-11-27T00:40:30.899Z,12.77
2018-11-27T00:44:34.623Z,12.97
2018-11-27T00:48:38.289Z,12.05
2018-11-27T00:52:42.044Z,12.55
2018-11-27T00:56:45.781Z,12.80
2018-11-27T01:00:49.500Z,13.50
2018-11-27T01:04:53.233Z,13.08
2018-11-27T01:08:56.985Z,12.80
2018-11-27T01:13:01.528Z,13.50
2018-11-27T01:17:05.562Z,13.53
2018-11-27T01:21:09.288Z,13.72
2018-11-27T01:25:13.231Z,14.30
2018-11-27T01:29:16.927Z,14.40
2018-11-27T01:33:20.671Z,13.93
2018-11-27T01:37:24.418Z,14.13
2018-11-27T01:41:28.102Z,14.10
2018-11-27T01:45:31.847Z,14.65
2018-11-27T01:49:35.547Z,13.95
2018-11-27T01:58:05.651Z,14.13
2018-11-27T02:02:09.390Z,14.68
2018-11-27T02:06:13.113Z,14.43
2018-11-27T02:10:16.870Z,14.98
2018-11-27T02:14:20.538Z,14.83
2018-11-27T02:18:24.214Z,15.58
2018-11-27T02:22:27.863Z,16.62
2018-11-27T02:26:31.576Z,14.75
2018-11-27T02:30:35.593Z,15.00
2018-11-27T02:34:39.338Z,15.70
2018-11-27T02:38:43.034Z,15.60
2018-11-27T02:42:46.719Z,15.55
2018-11-27T02:46:50.408Z,16.00
2018-11-27T02:50:54.086Z,16.37
2018-11-27T02:54:57.778Z,16.33
2018-11-27T02:59:01.543Z,16.40
2018-11-27T03:03:05.668Z,15.78
2018-11-27T03:07:09.433Z,15.43
2018-11-27T03:15:01.914Z,16.05
2018-11-27T03:19:05.725Z,16.07
2018-11-27T03:24:14.783Z,16.15
2018-11-27T03:28:18.463Z,15.85
2018-11-27T03:32:22.348Z,16.57
2018-11-27T03:36:26.003Z,16.25
2018-11-27T03:40:29.845Z,15.95
2018-11-27T03:44:33.546Z,16.15
2018-11-27T03:48:37.262Z,16.07
2018-11-27T03:52:40.965Z,16.35
2018-11-27T03:56:44.659Z,17.87
2018-11-27T04:00:48.402Z,17.65
2018-11-27T04:04:52.142Z,18.32
2018-11-27T04:08:55.863Z,18.25
2018-11-27T04:12:59.734Z,18.02
2018-11-27T04:17:03.511Z,18.35
2018-11-27T04:21:07.342Z,18.12
2018-11-27T04:25:12.244Z,18.77
2018-11-27T04:40:37.521Z,18.77
2018-11-27T04:44:41.266Z,18.53
2018-11-27T04:48:44.993Z,18.60
2018-11-27T04:52:48.807Z,18.75
2018-11-27T05:01:09.709Z,20.03
2018-11-27T05:06:52.486Z,18.82
2018-11-27T05:12:43.773Z,18.67
2018-11-27T05:16:47.471Z,19.65
2018-11-27T05:20:51.202Z,19.40
2018-11-27T05:24:54.930Z,20.57
2018-11-27T05:36:33.222Z,19.67
2018-11-27T05:40:36.942Z,20.08
2018-11-27T05:44:40.619Z,20.40
2018-11-27T05:49:01.693Z,20.08
2018-11-27T05:53:06.207Z,21.02
2018-11-27T05:57:09.991Z,21.37
2018-11-27T06:01:13.697Z,20.82
2018-11-27T06:05:18.581Z,20.35
2018-11-27T06:09:22.412Z,21.12
2018-11-27T06:13:26.160Z,20.77
2018-11-27T06:17:29.914Z,20.82
2018-11-27T06:21:33.643Z,20.13
2018-11-27T06:34:23.691Z,20.82
2018-11-27T06:55:33.298Z,20.95
2018-11-27T07:03:38.647Z,20.43
2018-11-27T08:07:27.734Z,24.72
2018-11-27T08:11:31.405Z,24.95
2018-11-27T08:15:35.166Z,25.43
2018-11-27T08:19:38.895Z,26.52
2018-11-27T08:23:42.605Z,26.87
2018-11-27T08:27:46.358Z,27.58
2018-11-27T08:31:50.096Z,27.90
2018-11-27T08:37:21.722Z,28.83
2018-11-27T08:41:25.385Z,29.10
2018-11-27T08:50:19.234Z,31.95
2018-11-27T09:00:22.292Z,34.80
2018-11-27T10:07:59.200Z,44.18
2018-11-27T10:12:02.921Z,40.78
2018-11-27T10:16:06.834Z,36.65
2018-11-27T10:20:13.221Z,37.60
2018-11-27T10:24:16.938Z,36.20
2018-11-27T10:28:20.623Z,34.90
2018-11-27T10:32:24.310Z,34.30
2018-11-27T10:36:28.011Z,34.70
2018-11-27T10:40:31.717Z,34.08
2018-11-27T10:44:35.770Z,34.65
2018-11-27T10:48:39.484Z,34.30
2018-11-27T10:52:45.173Z,33.55
2018-11-27T11:01:24.061Z,35.10
2018-11-27T11:08:33.150Z,34.00
2018-11-27T11:12:36.883Z,35.43
2018-11-27T11:20:32.778Z,35.00
2018-11-27T11:30:46.106Z,35.92
2018-11-27T11:34:50.030Z,35.98
2018-11-27T12:18:09.253Z,35.27
2018-11-27T12:24:20.774Z,36.90
2018-11-27T12:47:26.803Z,27.57
2018-11-27T12:51:30.506Z,24.90
2018-11-27T12:55:34.398Z,24.30
2018-11-27T12:59:38.086Z,22.27
2018-11-27T13:03:41.843Z,24.43
2018-11-27T13:07:45.559Z,22.73
2018-11-27T13:11:49.293Z,21.53
2018-11-27T13:15:52.977Z,20.67
2018-11-27T13:19:56.744Z,21.43
2018-11-27T13:24:00.431Z,21.13
2018-11-27T13:28:04.198Z,23.30
2018-11-27T13:32:08.704Z,22.03
2018-11-27T13:36:12.455Z,20.20
2018-11-27T13:40:16.219Z,19.77
2018-11-27T13:44:19.864Z,18.87
2018-11-27T13:48:23.623Z,17.30
2018-11-27T13:52:27.411Z,19.20
2018-11-27T14:03:01.804Z,17.33
2018-11-27T14:07:05.515Z,18.10
2018-11-27T14:11:09.300Z,17.47
2018-11-27T14:15:14.601Z,16.63
2018-11-27T14:19:18.378Z,17.97
2018-11-27T14:23:22.132Z,18.17
2018-11-27T14:27:25.863Z,19.07
2018-11-27T14:31:29.735Z,19.23
2018-11-27T14:35:40.062Z,18.53
2018-11-27T14:39:43.788Z,19.00
2018-11-27T14:43:47.590Z,19.57
2018-11-27T14:47:53.834Z,18.60
2018-11-27T14:51:57.511Z,19.63
2018-11-27T14:56:01.231Z,19.50
2018-11-27T15:00:06.117Z,20.17
2018-11-27T15:04:09.854Z,19.23
2018-11-27T15:08:14.138Z,20.60
2018-11-27T15:12:17.898Z,21.20
2018-11-27T15:16:21.660Z,21.17
2018-11-27T15:28:51.821Z,27.17
2018-11-27T15:32:56.719Z,27.35
2018-11-27T15:37:00.493Z,27.13
2018-11-27T15:41:04.241Z,28.55
2018-11-27T15:45:09.876Z,27.85
2018-11-27T15:49:13.667Z,29.10
2018-11-27T15:53:17.425Z,28.30
2018-11-27T15:57:21.170Z,27.48
2018-11-27T16:01:24.869Z,27.62
2018-11-27T16:05:28.683Z,29.10
2018-11-27T16:09:40.089Z,27.70
2018-11-27T16:13:44.058Z,27.70
2018-11-27T16:17:50.650Z,27.60
2018-11-27T16:21:58.218Z,26.30
2018-11-27T16:26:01.998Z,24.87
2018-11-27T16:30:13.209Z,24.13
2018-11-27T16:34:16.943Z,23.20
2018-11-27T16:38:20.656Z,22.62
2018-11-27T16:42:24.370Z,22.10
2018-11-27T16:46:28.062Z,20.65
2018-11-27T16:50:31.766Z,19.83
2018-11-27T16:54:35.517Z,19.17
2018-11-27T16:58:39.209Z,19.13
2018-11-27T17:02:42.904Z,18.67
2018-11-27T17:06:46.620Z,19.02
2018-11-27T17:10:50.324Z,18.77
2018-11-27T17:14:54.046Z,19.75
2018-11-27T17:18:57.770Z,19.07
2018-11-27T17:23:03.501Z,19.73
2018-11-27T17:27:07.918Z,19.32
2018-11-27T17:31:13.812Z,19.00
2018-11-27T17:35:17.530Z,18.55
2018-11-27T17:39:21.264Z,17.90
2018-11-27T17:43:25.043Z,18.65
2018-11-27T17:47:28.719Z,18.52
2018-11-27T17:51:32.453Z,19.57
2018-11-27T17:55:36.235Z,19.07
2018-11-27T17:59:40.030Z,19.05
2018-11-27T18:03:43.778Z,18.52
2018-11-27T18:07:47.482Z,18.17
2018-11-27T18:11:51.210Z,19.20
2018-11-27T18:15:54.963Z,19.40
2018-11-27T18:19:58.702Z,21.03
2018-11-27T18:24:02.535Z,20.93
2018-11-27T18:28:06.547Z,19.65
2018-11-27T18:32:10.404Z,19.48
2018-11-27T18:39:03.598Z,20.17
2018-11-27T18:43:07.546Z,19.37
2018-11-27T18:47:11.397Z,19.70
2018-11-27T18:51:15.292Z,20.37
2018-11-27T18:55:19.180Z,21.17
2018-11-27T18:59:23.221Z,20.50
2018-11-27T19:03:26.910Z,19.62
2018-11-27T19:07:30.601Z,19.50
2018-11-27T19:11:34.441Z,20.77
2018-11-27T19:51:31.001Z,22.33
2018-11-27T19:55:48.630Z,15.80
2018-11-27T19:59:52.479Z,15.27
2018-11-27T20:03:56.456Z,14.97
2018-11-27T20:08:00.382Z,20.40
2018-11-27T20:12:04.342Z,21.12
2018-11-27T20:16:08.884Z,20.87
2018-11-27T20:20:13.921Z,21.17
2018-11-27T20:24:17.578Z,22.17
2018-11-27T20:28:21.291Z,21.00
2018-11-27T20:32:25.026Z,21.20
2018-11-27T20:36:28.750Z,20.92
2018-11-27T20:40:32.450Z,20.57
2018-11-27T20:45:37.627Z,21.73
2018-11-27T20:49:41.270Z,20.88
2018-11-27T20:53:44.978Z,21.40
2018-11-27T20:57:52.358Z,20.00
2018-11-27T21:30:58.933Z,21.12
2018-11-27T21:53:00.851Z,21.20
2018-11-27T22:10:17.925Z,21.57
2018-11-27T22:21:06.281Z,20.83
2018-11-27T22:25:11.742Z,21.07
2018-11-27T22:42:44.991Z,21.80
2018-11-27T22:46:48.677Z,21.48
2018-11-27T22:50:52.391Z,21.52
2018-11-27T23:20:24.784Z,22.03
2018-11-27T23:24:28.546Z,22.90
